Aérodrome :
LOGIN :

S'inscrire | Disclaimer

   EN    FR    IT 

 










Légende :    VFR   VFR Marginal   IFR   IFR Intensif   IFR Très Intensif
Visi : 
Plafond : 
>= 8 km
>= 3000ft
5 à 8 km
1000 à 3000 ft
1500m à 5 km
500 à 1000 ft
800 à 1500m
200 à 500 ft
< 800m
< 200 ft
Symboles :   Orages  Brouillard  Fortes neiges  Fortes précipitations  Vent > 20 kt
SIGMETs :   Divers  Orages  Givrage  Turbulence  Onde Orograph.  Cendres Volcan.







- Altitude de l'aérodrome : 863 ft
- Code IATA : ZAZ


LEZG - Zaragoza Aragon

DERNIER METAR :
  • 251130Z 29008KT 260V330 CAVOK 10/M01 Q1011

METARs EXPIRÉS :
  • 251100Z 30009KT 270V340 CAVOK 09/M01 Q1012
  • 251030Z 31008KT 270V330 CAVOK 08/M01 Q1012
  • 251000Z 31008KT 280V340 CAVOK 07/M01 Q1012
  • 250930Z 31008KT CAVOK 06/M01 Q1012
  • 250900Z 29005KT 250V330 CAVOK 05/M01 Q1012

TAF TAF LEZG
Valide du 25 à 12h jusqu'au 26 à 12h UTC


251100Z 2512/2612 30012KT 9999 FEW040 TX14/2514Z TN01/2606Z
TEMPO 2512/2518 30015G25KT
TEMPO 2521/2612 29015G30KT
Pas de NOTAMs connus pour ce terrain.
2 SIGMETs publiés pour la FIR Madrid (LECM) :
 
Turbulence forte
LECM SIGMET 3 VALID 251200/251600 LEVA
LECM MADRID FIR/UIR SEV TURB FCST WI N3902 W00120 - N4016 W00650 - N3815 W00705 - N3726 W00144 - N3902 W00120 FL200/300 MOV S 10KT NC=
Turbulence forte
LECM SIGMET 2 VALID 250800/251200 LEVA
LECM MADRID FIR/UIR SEV TURB FCST WI N4011 W00057 - N4110 W00637 - N3919 W00715 - N3801 W00131 - N4011 W00057 FL200/300 MOV S 10KT NC=



MET'MAP, la Météo Aéronautique d'un coup d'oeil ! - Copyright ORBIFLY Décembre 2007 - Disclaimer

ORBIFLY MET'MAP TEAM :

Programmation & Développement : Alexandra Zaïnal
Conception & Développement : Baudouin d'Aumeries
Co-Programmation & Développement : Marc-Olivier Méhu
Soutien technique & logistique : Manuel Goepfert

Contact : metmap@orbifly.com




SOURCES & CREDITS :

   NOAA